createdAt,value
2018-04-08T00:00:06.562Z,50.70
2018-04-08T00:01:11.014Z,50.70
2018-04-08T00:02:06.921Z,50.70
2018-04-08T00:03:09.069Z,50.40
2018-04-08T00:04:10.695Z,50.40
2018-04-08T00:05:06.649Z,50.60
2018-04-08T00:06:06.502Z,50.70
2018-04-08T00:07:06.218Z,50.60
2018-04-08T00:08:06.948Z,50.50
2018-04-08T00:09:06.746Z,50.50
2018-04-08T00:10:06.184Z,50.40
2018-04-08T00:11:06.263Z,50.50
2018-04-08T00:12:06.160Z,50.50
2018-04-08T00:13:06.150Z,50.60
2018-04-08T00:14:06.183Z,50.20
2018-04-08T00:15:11.394Z,50.50
2018-04-08T00:16:06.460Z,50.60
2018-04-08T00:17:05.951Z,50.50
2018-04-08T00:18:06.481Z,50.50
2018-04-08T00:19:06.620Z,50.40
2018-04-08T00:20:06.866Z,50.30
2018-04-08T00:21:06.251Z,50.40
2018-04-08T00:22:09.190Z,50.30
2018-04-08T00:23:06.959Z,50.30
2018-04-08T00:24:11.219Z,50.20
2018-04-08T00:25:10.782Z,50.30
2018-04-08T00:26:06.580Z,50.30
2018-04-08T00:27:11.110Z,50.40
2018-04-08T00:28:07.279Z,50.40
2018-04-08T00:29:06.621Z,50.40
2018-04-08T00:30:06.615Z,50.40
2018-04-08T00:31:06.675Z,50.60
2018-04-08T00:32:06.222Z,50.70
2018-04-08T00:33:06.603Z,50.70
2018-04-08T00:34:06.285Z,50.70
2018-04-08T00:35:06.959Z,25.30
2018-04-08T00:36:06.612Z,51.20
2018-04-08T00:37:08.740Z,50.80
2018-04-08T00:38:06.971Z,50.80
2018-04-08T00:39:06.631Z,50.60
2018-04-08T00:40:08.987Z,50.60
2018-04-08T00:41:09.031Z,50.50
2018-04-08T00:42:06.170Z,50.50
2018-04-08T00:43:05.827Z,50.90
2018-04-08T00:44:11.181Z,50.60
2018-04-08T00:45:11.479Z,50.60
2018-04-08T00:46:06.656Z,50.70
2018-04-08T00:47:08.427Z,51.20
2018-04-08T00:48:08.603Z,51.10
2018-04-08T00:49:06.711Z,51.10
2018-04-08T00:50:08.625Z,51.10
2018-04-08T00:51:11.086Z,51.30
2018-04-08T00:52:06.919Z,51.20
2018-04-08T00:53:06.687Z,51.40
2018-04-08T00:54:06.967Z,51.50
2018-04-08T00:55:05.910Z,51.60
2018-04-08T00:56:05.976Z,51.40
2018-04-08T00:57:11.475Z,51.70
2018-04-08T00:58:06.149Z,51.70
2018-04-08T00:59:06.705Z,51.50
2018-04-08T01:00:06.531Z,51.40
2018-04-08T01:01:06.646Z,51.30
2018-04-08T01:02:08.359Z,51.80
2018-04-08T01:03:10.781Z,51.60
2018-04-08T01:04:06.989Z,51.60
2018-04-08T01:05:07.026Z,51.60
2018-04-08T01:06:06.686Z,51.70
2018-04-08T01:07:06.235Z,51.60
2018-04-08T01:08:06.597Z,51.50
2018-04-08T01:09:05.900Z,51.80
2018-04-08T01:10:07.439Z,52.10
2018-04-08T01:11:06.329Z,52.10
2018-04-08T01:12:06.950Z,52.20
2018-04-08T01:13:06.664Z,52.10
2018-04-08T01:14:10.583Z,52.10
2018-04-08T01:15:11.247Z,52.10
2018-04-08T01:16:06.645Z,52.00
2018-04-08T01:17:11.510Z,52.80
2018-04-08T01:18:11.090Z,52.50
2018-04-08T01:19:14.092Z,52.30
2018-04-08T01:20:06.043Z,52.30
2018-04-08T01:21:06.677Z,52.30
2018-04-08T01:22:11.515Z,52.70
2018-04-08T01:23:06.722Z,52.60
2018-04-08T01:24:06.778Z,52.50
2018-04-08T01:25:06.268Z,52.40
2018-04-08T01:26:06.961Z,52.30
2018-04-08T01:27:08.533Z,52.20
2018-04-08T01:28:07.832Z,52.20
2018-04-08T01:29:09.388Z,52.60
2018-04-08T01:30:06.341Z,52.60
2018-04-08T01:31:06.624Z,52.50
2018-04-08T01:32:06.325Z,52.40
2018-04-08T01:33:08.738Z,53.20
2018-04-08T01:34:08.968Z,52.90
2018-04-08T01:35:05.938Z,52.90
2018-04-08T01:36:06.982Z,53.20
2018-04-08T01:37:06.316Z,53.30
2018-04-08T01:38:09.252Z,53.30
2018-04-08T01:39:06.606Z,53.40
2018-04-08T01:40:07.015Z,53.60
2018-04-08T01:41:05.930Z,53.70
2018-04-08T01:42:07.959Z,54.10
2018-04-08T01:43:08.366Z,54.60
2018-04-08T01:44:06.615Z,54.60
2018-04-08T01:45:06.687Z,54.90
2018-04-08T01:46:06.593Z,54.70
2018-04-08T01:47:13.283Z,54.30
2018-04-08T01:48:06.675Z,54.50
2018-04-08T01:49:05.902Z,54.90
2018-04-08T01:50:06.580Z,54.60
2018-04-08T01:51:06.960Z,54.50
2018-04-08T01:52:08.278Z,54.80
2018-04-08T01:53:06.620Z,54.80
2018-04-08T01:54:05.941Z,54.60
2018-04-08T01:55:11.175Z,55.00
2018-04-08T01:56:06.000Z,55.00
2018-04-08T01:57:06.622Z,55.40
2018-04-08T01:58:06.313Z,55.40
2018-04-08T01:59:06.658Z,55.20
2018-04-08T02:00:06.201Z,55.10
2018-04-08T02:01:06.633Z,55.00
2018-04-08T02:02:07.003Z,54.90
2018-04-08T02:03:08.430Z,54.80
2018-04-08T02:04:06.639Z,54.80
2018-04-08T02:05:06.260Z,54.70
2018-04-08T02:06:08.893Z,54.80
2018-04-08T02:07:07.064Z,54.80
2018-04-08T02:08:06.641Z,55.00
2018-04-08T02:09:10.764Z,55.00
2018-04-08T02:10:06.650Z,55.10
2018-04-08T02:11:11.257Z,54.90
2018-04-08T02:12:11.692Z,54.80
2018-04-08T02:13:13.887Z,55.10
2018-04-08T02:14:06.769Z,55.10
2018-04-08T02:15:09.142Z,55.60
2018-04-08T02:16:08.556Z,55.20
2018-04-08T02:17:06.648Z,55.20
2018-04-08T02:18:06.452Z,55.20
2018-04-08T02:19:10.764Z,55.60
2018-04-08T02:20:06.725Z,55.60
2018-04-08T02:21:06.698Z,56.10
2018-04-08T02:22:11.199Z,56.30
2018-04-08T02:23:05.982Z,56.20
2018-04-08T02:24:06.671Z,56.50
2018-04-08T02:25:08.229Z,56.90
2018-04-08T02:26:10.931Z,56.70
2018-04-08T02:27:06.732Z,56.60
2018-04-08T02:28:06.276Z,56.60
2018-04-08T02:29:06.357Z,57.60
2018-04-08T02:30:08.364Z,57.50
2018-04-08T02:31:06.667Z,57.50
2018-04-08T02:32:05.997Z,57.50
2018-04-08T02:33:08.751Z,57.10
2018-04-08T02:34:06.698Z,57.10
2018-04-08T02:35:06.241Z,57.00
2018-04-08T02:36:08.570Z,57.60
2018-04-08T02:37:06.329Z,57.60
2018-04-08T02:38:06.341Z,57.60
2018-04-08T02:39:08.870Z,57.50
2018-04-08T02:40:07.027Z,57.40
2018-04-08T02:41:06.354Z,57.30
2018-04-08T02:42:06.287Z,57.70
2018-04-08T02:43:11.174Z,57.60
2018-04-08T02:44:06.773Z,57.60
2018-04-08T02:45:08.815Z,57.60
2018-04-08T02:46:07.030Z,57.60
2018-04-08T02:47:06.369Z,58.00
2018-04-08T02:48:06.267Z,57.60
2018-04-08T02:49:06.338Z,58.10
2018-04-08T02:50:05.995Z,57.80
2018-04-08T02:51:06.377Z,57.70
2018-04-08T02:52:07.027Z,57.60
2018-04-08T02:53:11.750Z,57.50
2018-04-08T02:54:11.342Z,58.60
2018-04-08T02:55:06.711Z,58.60
2018-04-08T02:56:06.765Z,58.20
2018-04-08T02:57:06.443Z,58.20
2018-04-08T02:58:05.997Z,58.00
2018-04-08T02:59:06.019Z,58.00
2018-04-08T03:00:06.286Z,57.80
2018-04-08T03:01:06.378Z,57.90
2018-04-08T03:02:07.160Z,57.90
2018-04-08T03:03:06.777Z,57.80
2018-04-08T03:04:08.251Z,58.00
2018-04-08T03:05:06.260Z,58.00
2018-04-08T03:06:11.394Z,58.60
2018-04-08T03:07:06.003Z,58.60
2018-04-08T03:08:11.330Z,58.20
2018-04-08T03:09:09.444Z,58.00
2018-04-08T03:10:08.647Z,58.00
2018-04-08T03:11:06.492Z,58.00
2018-04-08T03:12:10.991Z,58.20
2018-04-08T03:13:11.661Z,58.20
2018-04-08T03:14:06.771Z,58.90
2018-04-08T03:15:06.746Z,58.60
2018-04-08T03:16:06.704Z,58.50
2018-04-08T03:17:05.808Z,58.60
2018-04-08T03:18:09.141Z,58.50
2018-04-08T03:19:06.280Z,58.50
2018-04-08T03:20:08.457Z,58.40
2018-04-08T03:21:10.979Z,58.30
2018-04-08T03:22:06.712Z,58.30
2018-04-08T03:23:10.984Z,58.80
2018-04-08T03:24:16.362Z,58.70
2018-04-08T03:25:07.207Z,58.70
2018-04-08T03:26:10.937Z,58.50
2018-04-08T03:27:08.909Z,58.20
2018-04-08T03:28:06.814Z,58.20
2018-04-08T03:29:06.056Z,58.10
2018-04-08T03:30:06.140Z,58.50
2018-04-08T03:31:06.719Z,58.70
2018-04-08T03:32:07.032Z,58.50
2018-04-08T03:33:06.041Z,58.80
2018-04-08T03:34:11.189Z,58.50
2018-04-08T03:35:06.882Z,58.50
2018-04-08T03:36:08.451Z,58.40
2018-04-08T03:37:11.272Z,58.40
2018-04-08T03:38:06.028Z,58.30
2018-04-08T03:39:07.580Z,58.30
2018-04-08T03:40:06.742Z,58.20
2018-04-08T03:41:06.856Z,58.20
2018-04-08T03:42:08.494Z,58.50
2018-04-08T03:43:11.173Z,58.30
2018-04-08T03:44:05.959Z,58.30
2018-04-08T03:45:07.433Z,58.50
2018-04-08T03:46:08.988Z,58.30
2018-04-08T03:47:06.039Z,58.30
2018-04-08T03:48:06.488Z,58.20
2018-04-08T03:49:06.327Z,58.10
2018-04-08T03:50:11.492Z,58.10
2018-04-08T03:51:06.505Z,58.00
2018-04-08T03:52:09.059Z,58.40
2018-04-08T03:53:06.332Z,58.40
2018-04-08T03:54:06.761Z,58.20
2018-04-08T03:55:13.465Z,58.40
2018-04-08T03:56:06.372Z,58.40
2018-04-08T03:57:06.081Z,58.60
2018-04-08T03:58:07.489Z,58.60
2018-04-08T03:59:05.981Z,58.60
2018-04-08T04:00:06.029Z,58.60
2018-04-08T04:01:06.039Z,58.50
2018-04-08T04:02:06.872Z,59.00
2018-04-08T04:03:08.473Z,59.00
2018-04-08T04:04:08.606Z,59.10
2018-04-08T04:05:06.824Z,59.00
2018-04-08T04:06:13.274Z,58.80
2018-04-08T04:07:11.170Z,58.80
2018-04-08T04:08:09.817Z,58.70
2018-04-08T04:09:05.973Z,58.70
2018-04-08T04:10:06.696Z,58.60
2018-04-08T04:11:06.812Z,58.40
2018-04-08T04:12:06.460Z,58.50
2018-04-08T04:13:06.079Z,59.00
2018-04-08T04:14:11.390Z,59.40
2018-04-08T04:15:06.046Z,59.40
2018-04-08T04:16:06.462Z,59.60
2018-04-08T04:17:06.752Z,59.60
2018-04-08T04:18:08.624Z,59.30
2018-04-08T04:19:11.461Z,59.40
2018-04-08T04:20:06.738Z,59.40
2018-04-08T04:21:09.452Z,59.60
2018-04-08T04:22:07.239Z,59.60
2018-04-08T04:23:07.167Z,59.50
2018-04-08T04:24:07.116Z,59.30
2018-04-08T04:25:09.102Z,59.50
2018-04-08T04:26:06.907Z,59.50
2018-04-08T04:27:06.319Z,59.30
2018-04-08T04:28:11.173Z,59.10
2018-04-08T04:29:10.365Z,59.30
2018-04-08T04:30:06.045Z,59.30
2018-04-08T04:31:10.923Z,59.10
2018-04-08T04:32:07.131Z,59.10
2018-04-08T04:33:06.194Z,58.90
2018-04-08T04:34:06.414Z,59.10
2018-04-08T04:35:06.492Z,59.00
2018-04-08T04:36:09.577Z,59.10
2018-04-08T04:37:08.786Z,59.50
2018-04-08T04:38:08.396Z,59.50
2018-04-08T04:39:09.530Z,59.80
2018-04-08T04:40:07.625Z,59.70
2018-04-08T04:41:06.913Z,59.70
2018-04-08T04:42:06.519Z,59.50
2018-04-08T04:43:07.100Z,59.40
2018-04-08T04:44:06.146Z,59.40
2018-04-08T04:45:06.913Z,59.50
2018-04-08T04:46:12.255Z,59.60
2018-04-08T04:47:08.447Z,59.60
2018-04-08T04:48:06.070Z,59.50
2018-04-08T04:49:15.471Z,59.80
2018-04-08T04:50:07.668Z,59.80
2018-04-08T04:51:06.841Z,59.80
2018-04-08T04:52:07.611Z,60.00
2018-04-08T04:53:06.516Z,60.00
2018-04-08T04:54:06.350Z,60.20
2018-04-08T04:55:06.865Z,60.00
2018-04-08T04:56:06.390Z,60.00
2018-04-08T04:57:06.368Z,59.90
2018-04-08T04:58:06.017Z,60.00
2018-04-08T04:59:08.630Z,59.90
2018-04-08T05:00:06.831Z,59.90
2018-04-08T05:01:06.752Z,59.90
2018-04-08T05:02:08.445Z,59.60
2018-04-08T05:03:11.313Z,59.70
2018-04-08T05:04:06.873Z,59.70
2018-04-08T05:05:06.508Z,59.70
2018-04-08T05:06:08.765Z,59.50
2018-04-08T05:07:07.126Z,59.50
2018-04-08T05:08:06.509Z,59.30
2018-04-08T05:09:06.893Z,59.30
2018-04-08T05:10:08.619Z,59.20
2018-04-08T05:11:11.265Z,59.10
2018-04-08T05:12:06.400Z,59.10
2018-04-08T05:13:06.496Z,59.00
2018-04-08T05:14:07.279Z,59.00
2018-04-08T05:15:06.567Z,59.00
2018-04-08T05:16:06.364Z,58.70
2018-04-08T05:17:06.801Z,58.60
2018-04-08T05:18:11.499Z,58.60
2018-04-08T05:19:07.591Z,58.50
2018-04-08T05:20:11.371Z,58.30
2018-04-08T05:21:11.720Z,58.30
2018-04-08T05:22:06.750Z,58.20
2018-04-08T05:23:06.936Z,58.10
2018-04-08T05:24:06.090Z,57.90
2018-04-08T05:25:11.153Z,57.90
2018-04-08T05:26:06.400Z,57.70
2018-04-08T05:27:06.422Z,57.40
2018-04-08T05:28:06.939Z,57.10
2018-04-08T05:29:11.072Z,56.80
2018-04-08T05:30:07.161Z,55.60
2018-04-08T05:31:06.802Z,55.70
2018-04-08T05:32:06.643Z,55.70
2018-04-08T05:33:06.821Z,55.50
2018-04-08T05:34:06.903Z,55.70
2018-04-08T05:35:06.569Z,55.50
2018-04-08T05:36:10.635Z,54.00
2018-04-08T05:37:06.888Z,54.00
2018-04-08T05:38:10.640Z,53.50
2018-04-08T05:39:06.190Z,53.50
2018-04-08T05:40:10.732Z,52.90
2018-04-08T05:41:06.628Z,52.90
2018-04-08T05:42:06.124Z,53.00
2018-04-08T05:43:08.763Z,53.00
2018-04-08T05:44:06.988Z,53.00
2018-04-08T05:45:06.175Z,52.90
2018-04-08T05:46:06.863Z,52.50
2018-04-08T05:47:06.115Z,52.10
2018-04-08T05:48:06.558Z,51.90
2018-04-08T05:49:06.877Z,51.90
2018-04-08T05:50:08.399Z,51.30
2018-04-08T05:51:06.868Z,51.30
2018-04-08T05:52:06.160Z,50.40
2018-04-08T05:53:06.513Z,49.30
2018-04-08T05:54:06.930Z,49.40
2018-04-08T05:55:08.102Z,49.30
2018-04-08T05:56:06.097Z,47.90
2018-04-08T05:57:11.038Z,48.20
2018-04-08T05:58:07.731Z,47.70
2018-04-08T05:59:16.719Z,47.50
2018-04-08T06:00:06.915Z,47.40
2018-04-08T06:01:06.558Z,47.50
2018-04-08T06:02:12.601Z,47.60
2018-04-08T06:03:06.549Z,47.50
2018-04-08T06:04:06.560Z,47.30
2018-04-08T06:05:07.637Z,46.60
2018-04-08T06:06:06.848Z,46.70
2018-04-08T06:07:10.611Z,45.40
2018-04-08T06:08:08.364Z,44.70
2018-04-08T06:09:06.701Z,44.60
2018-04-08T06:10:06.595Z,44.10
2018-04-08T06:11:06.918Z,44.50
2018-04-08T06:12:08.772Z,43.90
2018-04-08T06:13:06.959Z,43.90
2018-04-08T06:14:06.542Z,44.40
2018-04-08T06:15:07.035Z,43.60
2018-04-08T06:16:05.885Z,43.00
2018-04-08T06:17:08.553Z,43.10
2018-04-08T06:18:06.874Z,43.10
2018-04-08T06:19:08.651Z,43.80
2018-04-08T06:20:13.885Z,43.80
2018-04-08T06:21:11.440Z,43.50
2018-04-08T06:22:06.531Z,43.50
2018-04-08T06:23:06.209Z,43.70
2018-04-08T06:24:06.906Z,43.50
2018-04-08T06:25:05.850Z,42.60
2018-04-08T06:26:06.918Z,42.70
2018-04-08T06:27:08.664Z,42.50
2018-04-08T06:28:06.631Z,42.50
2018-04-08T06:29:06.610Z,43.00
2018-04-08T06:30:06.242Z,43.10
2018-04-08T06:31:08.345Z,42.90
2018-04-08T06:32:06.519Z,42.90
2018-04-08T06:33:07.017Z,42.90
2018-04-08T06:34:06.611Z,43.00
2018-04-08T06:35:09.478Z,42.90
2018-04-08T06:36:08.710Z,43.10
2018-04-08T06:37:06.583Z,43.10
2018-04-08T06:38:06.907Z,43.10
2018-04-08T06:39:06.618Z,42.90
2018-04-08T06:40:08.951Z,42.70
2018-04-08T06:41:11.548Z,42.70
2018-04-08T06:42:06.482Z,42.20
2018-04-08T06:43:06.895Z,41.90
2018-04-08T06:44:06.206Z,42.20
2018-04-08T06:45:10.872Z,42.20
2018-04-08T06:46:06.988Z,42.20
2018-04-08T06:47:10.664Z,41.70
2018-04-08T06:48:06.227Z,41.70
2018-04-08T06:49:06.642Z,41.60
2018-04-08T06:50:06.558Z,40.70
2018-04-08T06:51:07.213Z,40.50
2018-04-08T06:52:09.320Z,40.90
2018-04-08T06:53:06.246Z,40.90
2018-04-08T06:54:06.580Z,40.70
2018-04-08T06:55:06.590Z,40.30
2018-04-08T06:56:06.936Z,40.20
2018-04-08T06:57:09.139Z,40.20
2018-04-08T06:58:08.367Z,40.00
2018-04-08T06:59:06.198Z,40.00
2018-04-08T07:00:06.992Z,40.00
2018-04-08T07:01:06.135Z,40.10
2018-04-08T07:02:06.310Z,39.70
2018-04-08T07:03:08.656Z,39.10
2018-04-08T07:04:06.617Z,39.10
2018-04-08T07:05:06.930Z,38.80
2018-04-08T07:06:09.020Z,39.00
2018-04-08T07:07:05.873Z,39.00
2018-04-08T07:08:06.485Z,39.20
2018-04-08T07:09:06.547Z,38.90
2018-04-08T07:10:06.253Z,38.50
2018-04-08T07:11:07.694Z,38.70
2018-04-08T07:12:10.607Z,37.80
2018-04-08T07:13:06.478Z,37.70
2018-04-08T07:14:09.129Z,37.20
2018-04-08T07:15:14.094Z,37.00
2018-04-08T07:16:06.225Z,37.10
2018-04-08T07:17:06.218Z,37.40
2018-04-08T07:18:06.628Z,37.90
2018-04-08T07:19:11.266Z,37.70
2018-04-08T07:20:08.855Z,37.70
2018-04-08T07:21:07.349Z,37.70
2018-04-08T07:22:08.643Z,38.00
2018-04-08T07:23:06.670Z,38.00
2018-04-08T07:24:06.959Z,37.90
2018-04-08T07:25:08.591Z,38.10
2018-04-08T07:26:06.611Z,38.10
2018-04-08T07:27:06.329Z,38.20
2018-04-08T07:28:06.623Z,37.60
2018-04-08T07:29:05.989Z,37.70
2018-04-08T07:30:06.716Z,37.80
2018-04-08T07:31:05.952Z,37.90
2018-04-08T07:32:06.872Z,38.20
2018-04-08T07:33:06.618Z,38.10
2018-04-08T07:34:06.516Z,38.40
2018-04-08T07:35:10.903Z,38.50
2018-04-08T07:36:06.630Z,38.50
2018-04-08T07:37:08.662Z,37.90
2018-04-08T07:38:07.014Z,37.90
2018-04-08T07:39:06.659Z,37.90
2018-04-08T07:40:11.589Z,37.90
2018-04-08T07:41:07.504Z,38.20
2018-04-08T07:42:06.646Z,38.10
2018-04-08T07:43:06.693Z,38.10
2018-04-08T07:44:10.810Z,38.20
2018-04-08T07:45:06.991Z,38.20
2018-04-08T07:46:06.609Z,38.00
2018-04-08T07:47:08.525Z,37.00
2018-04-08T07:48:13.678Z,36.50
2018-04-08T07:49:06.656Z,36.50
2018-04-08T07:50:08.383Z,37.00
2018-04-08T07:51:11.152Z,36.50
2018-04-08T07:52:06.686Z,36.50
2018-04-08T07:53:06.709Z,36.50
2018-04-08T07:54:06.685Z,36.10
2018-04-08T07:55:06.251Z,36.20
2018-04-08T07:56:06.304Z,36.60
2018-04-08T07:57:06.586Z,36.90
2018-04-08T07:58:06.399Z,37.50
2018-04-08T07:59:06.582Z,37.50
2018-04-08T08:00:07.028Z,37.70
2018-04-08T08:01:08.707Z,37.70
2018-04-08T08:02:11.346Z,37.10
2018-04-08T08:03:10.791Z,37.60
2018-04-08T08:04:08.985Z,37.80
2018-04-08T08:05:05.868Z,37.80
2018-04-08T08:06:06.244Z,37.60
2018-04-08T08:07:06.194Z,37.80
2018-04-08T08:08:08.665Z,37.70
2018-04-08T08:09:09.000Z,37.50
2018-04-08T08:10:09.105Z,37.20
2018-04-08T08:11:08.532Z,38.10
2018-04-08T08:12:06.692Z,38.00
2018-04-08T08:13:06.428Z,38.10
2018-04-08T08:14:06.167Z,37.90
2018-04-08T08:15:08.787Z,37.70
2018-04-08T08:16:06.926Z,37.60
2018-04-08T08:17:11.203Z,37.50
2018-04-08T08:18:07.070Z,37.50
2018-04-08T08:19:13.382Z,37.90
2018-04-08T08:20:06.371Z,37.90
2018-04-08T08:21:06.297Z,38.20
2018-04-08T08:22:06.315Z,38.40
2018-04-08T08:23:06.348Z,38.20
2018-04-08T08:24:06.269Z,38.20
2018-04-08T08:25:06.967Z,38.10
2018-04-08T08:26:06.267Z,37.70
2018-04-08T08:27:08.721Z,37.90
2018-04-08T08:28:06.644Z,37.90
2018-04-08T08:29:08.469Z,37.70
2018-04-08T08:30:08.780Z,37.80
2018-04-08T08:31:07.068Z,37.80
2018-04-08T08:32:06.263Z,37.60
2018-04-08T08:33:06.404Z,38.00
2018-04-08T08:34:08.828Z,38.20
2018-04-08T08:35:06.680Z,38.20
2018-04-08T08:36:06.691Z,38.30
2018-04-08T08:37:06.298Z,38.10
2018-04-08T08:38:08.984Z,38.10
2018-04-08T08:39:05.909Z,38.10
2018-04-08T08:40:11.576Z,38.80
2018-04-08T08:41:06.655Z,38.80
2018-04-08T08:42:09.666Z,38.30
2018-04-08T08:43:10.934Z,38.40
2018-04-08T08:44:09.970Z,38.20
2018-04-08T08:45:07.119Z,38.20
2018-04-08T08:46:06.359Z,38.80
2018-04-08T08:47:06.732Z,38.10
2018-04-08T08:48:06.349Z,38.10
2018-04-08T08:49:06.969Z,38.10
2018-04-08T08:50:06.935Z,38.30
2018-04-08T08:51:06.187Z,38.50
2018-04-08T08:52:08.579Z,38.30
2018-04-08T08:53:08.545Z,38.30
2018-04-08T08:54:06.644Z,38.30
2018-04-08T08:55:08.703Z,37.30
2018-04-08T08:56:06.731Z,37.30
2018-04-08T08:57:06.343Z,36.80
2018-04-08T08:58:06.213Z,36.70
2018-04-08T08:59:06.708Z,36.50
2018-04-08T09:00:06.214Z,36.70
2018-04-08T09:01:15.139Z,36.70
2018-04-08T09:02:06.322Z,36.60
2018-04-08T09:03:08.308Z,37.30
2018-04-08T09:04:06.304Z,37.30
2018-04-08T09:05:06.721Z,37.50
2018-04-08T09:06:11.234Z,37.10
2018-04-08T09:07:06.371Z,37.70
2018-04-08T09:08:06.678Z,37.50
2018-04-08T09:09:05.983Z,37.70
2018-04-08T09:10:06.774Z,37.40
2018-04-08T09:11:07.025Z,37.00
2018-04-08T09:12:11.528Z,37.00
2018-04-08T09:13:06.310Z,37.00
2018-04-08T09:14:08.563Z,37.30
2018-04-08T09:15:08.918Z,37.40
2018-04-08T09:16:06.718Z,37.50
2018-04-08T09:17:07.002Z,37.40
2018-04-08T09:18:13.885Z,37.10
2018-04-08T09:19:07.050Z,37.10
2018-04-08T09:20:06.315Z,36.70
2018-04-08T09:21:06.610Z,36.70
2018-04-08T09:22:05.958Z,36.80
2018-04-08T09:23:06.736Z,37.00
2018-04-08T09:24:06.739Z,36.40
2018-04-08T09:25:06.224Z,36.00
2018-04-08T09:26:06.668Z,36.20
2018-04-08T09:27:06.768Z,36.10
2018-04-08T09:28:06.286Z,36.20
2018-04-08T09:29:11.712Z,36.10
2018-04-08T09:30:11.187Z,36.10
2018-04-08T09:31:06.312Z,36.20
2018-04-08T09:32:10.970Z,36.40
2018-04-08T09:33:06.803Z,36.40
2018-04-08T09:34:06.349Z,36.40
2018-04-08T09:35:05.951Z,35.60
2018-04-08T09:36:06.302Z,36.10
2018-04-08T09:37:08.801Z,35.90
2018-04-08T09:38:06.812Z,35.80
2018-04-08T09:39:11.147Z,34.00
2018-04-08T09:40:06.059Z,34.00
2018-04-08T09:41:06.626Z,34.30
2018-04-08T09:42:06.674Z,33.80
2018-04-08T09:43:08.494Z,33.00
2018-04-08T09:44:06.767Z,32.90
2018-04-08T09:45:10.982Z,32.50
2018-04-08T09:46:05.902Z,32.00
2018-04-08T09:47:08.988Z,32.60
2018-04-08T09:48:10.746Z,33.00
2018-04-08T09:49:11.013Z,33.00
2018-04-08T09:50:06.076Z,33.60
2018-04-08T09:51:10.870Z,33.20
2018-04-08T09:52:06.730Z,33.20
2018-04-08T09:53:06.759Z,33.80
2018-04-08T09:54:08.883Z,34.60
2018-04-08T09:55:07.118Z,34.50
2018-04-08T09:56:06.752Z,35.00
2018-04-08T09:57:06.790Z,35.00
2018-04-08T09:58:09.214Z,35.20
2018-04-08T09:59:06.311Z,35.20
2018-04-08T10:00:06.726Z,34.20
2018-04-08T10:01:09.309Z,34.10
2018-04-08T10:02:11.004Z,34.10
2018-04-08T10:03:09.302Z,34.20
2018-04-08T10:04:10.842Z,34.50
2018-04-08T10:05:06.732Z,34.50
2018-04-08T10:06:11.231Z,34.90
2018-04-08T10:07:09.388Z,34.50
2018-04-08T10:08:06.455Z,34.50
2018-04-08T10:09:06.075Z,34.80
2018-04-08T10:10:11.231Z,35.00
2018-04-08T10:11:05.984Z,34.90
2018-04-08T10:12:11.438Z,34.30
2018-04-08T10:13:06.680Z,34.30
2018-04-08T10:14:06.370Z,34.60
2018-04-08T10:15:08.412Z,33.80
2018-04-08T10:16:06.396Z,33.80
2018-04-08T10:17:06.381Z,33.60
2018-04-08T10:18:11.329Z,34.00
2018-04-08T10:19:07.104Z,34.20
2018-04-08T10:20:06.642Z,33.60
2018-04-08T10:21:06.339Z,33.80
2018-04-08T10:22:06.690Z,33.30
2018-04-08T10:23:10.487Z,33.50
2018-04-08T10:24:06.394Z,33.50
2018-04-08T10:25:11.290Z,33.60
2018-04-08T10:26:06.453Z,33.70
2018-04-08T10:27:06.407Z,33.80
2018-04-08T10:28:05.998Z,32.90
2018-04-08T10:29:07.207Z,33.00
2018-04-08T10:30:06.078Z,32.80
2018-04-08T10:31:06.014Z,33.50
2018-04-08T10:32:11.548Z,34.00
2018-04-08T10:33:06.473Z,34.00
2018-04-08T10:34:06.447Z,33.30
2018-04-08T10:35:11.357Z,33.90
2018-04-08T10:36:06.398Z,33.90
2018-04-08T10:37:08.650Z,33.30
2018-04-08T10:38:11.332Z,33.60
2018-04-08T10:39:08.670Z,34.10
2018-04-08T10:40:06.485Z,34.10
2018-04-08T10:41:11.419Z,34.20
2018-04-08T10:42:06.412Z,34.30
2018-04-08T10:43:09.821Z,33.70
2018-04-08T10:44:11.471Z,32.70
2018-04-08T10:45:08.664Z,32.90
2018-04-08T10:46:06.438Z,32.90
2018-04-08T10:47:06.400Z,33.00
2018-04-08T10:48:06.098Z,33.10
2018-04-08T10:49:06.785Z,33.20
2018-04-08T10:50:08.646Z,32.90
2018-04-08T10:51:11.147Z,33.00
2018-04-08T10:52:06.091Z,32.90
2018-04-08T10:53:07.091Z,33.00
2018-04-08T10:54:06.017Z,32.30
2018-04-08T10:55:08.923Z,32.60
2018-04-08T10:56:06.321Z,32.60
2018-04-08T10:57:06.406Z,32.40
2018-04-08T10:58:13.224Z,33.10
2018-04-08T10:59:10.833Z,32.20
2018-04-08T11:00:08.924Z,31.80
2018-04-08T11:01:07.631Z,31.80
2018-04-08T11:02:06.424Z,31.80
2018-04-08T11:03:06.350Z,31.90
2018-04-08T11:04:07.138Z,32.00
2018-04-08T11:05:06.797Z,31.60
2018-04-08T11:06:07.158Z,32.30
2018-04-08T11:07:06.159Z,32.20
2018-04-08T11:08:06.950Z,32.60
2018-04-08T11:09:06.115Z,32.50
2018-04-08T11:10:08.852Z,32.30
2018-04-08T11:11:06.825Z,32.30
2018-04-08T11:12:07.225Z,33.20
2018-04-08T11:13:06.073Z,33.30
2018-04-08T11:14:10.857Z,32.70
2018-04-08T11:15:06.371Z,32.60
2018-04-08T11:16:11.196Z,32.20
2018-04-08T11:17:06.438Z,32.20
2018-04-08T11:18:06.097Z,32.40
2018-04-08T11:19:06.818Z,32.20
2018-04-08T11:20:06.702Z,31.60
2018-04-08T11:21:06.901Z,31.30
2018-04-08T11:22:06.441Z,31.90
2018-04-08T11:23:06.503Z,31.60
2018-04-08T11:24:06.721Z,31.90
2018-04-08T11:25:10.891Z,31.70
2018-04-08T11:26:07.159Z,31.60
2018-04-08T11:27:06.350Z,31.40
2018-04-08T11:28:06.089Z,31.70
2018-04-08T11:29:11.735Z,32.00
2018-04-08T11:30:11.307Z,32.10
2018-04-08T11:31:06.903Z,32.40
2018-04-08T11:32:10.982Z,31.30
2018-04-08T11:33:07.194Z,31.30
2018-04-08T11:34:06.783Z,30.60
2018-04-08T11:35:10.909Z,31.00
2018-04-08T11:36:07.192Z,31.00
2018-04-08T11:37:06.913Z,31.20
2018-04-08T11:38:06.462Z,31.00
2018-04-08T11:39:07.193Z,30.90
2018-04-08T11:40:11.325Z,30.70
2018-04-08T11:41:07.301Z,30.60
2018-04-08T11:42:07.156Z,30.60
2018-04-08T11:43:11.013Z,31.60
2018-04-08T11:44:11.308Z,31.20
2018-04-08T11:45:11.097Z,31.20
2018-04-08T11:46:06.584Z,31.20
2018-04-08T11:47:06.030Z,30.90
2018-04-08T11:48:06.799Z,30.80
2018-04-08T11:49:07.907Z,31.00
2018-04-08T11:50:06.534Z,31.10
2018-04-08T11:51:06.856Z,31.40
2018-04-08T11:52:06.869Z,31.50
2018-04-08T11:53:06.194Z,31.50
2018-04-08T11:54:11.426Z,32.00
2018-04-08T11:55:08.504Z,31.20
2018-04-08T11:56:11.060Z,31.20
2018-04-08T11:57:10.632Z,31.00
2018-04-08T11:58:08.715Z,31.20
2018-04-08T11:59:06.597Z,31.20
2018-04-08T12:00:06.474Z,31.30
2018-04-08T12:01:06.128Z,31.70
2018-04-08T12:02:06.907Z,31.30
2018-04-08T12:03:13.923Z,31.20
2018-04-08T12:04:06.926Z,31.30
2018-04-08T12:05:06.885Z,31.20
2018-04-08T12:06:11.376Z,31.40
2018-04-08T12:07:06.520Z,30.90
2018-04-08T12:08:06.976Z,31.00
2018-04-08T12:09:06.127Z,31.10
2018-04-08T12:10:08.856Z,30.90
2018-04-08T12:11:06.815Z,30.90
2018-04-08T12:12:06.450Z,30.90
2018-04-08T12:13:09.228Z,31.20
2018-04-08T12:14:06.934Z,31.20
2018-04-08T12:15:06.501Z,31.20
2018-04-08T12:16:06.994Z,30.80
2018-04-08T12:17:11.593Z,31.10
2018-04-08T12:18:06.511Z,31.60
2018-04-08T12:19:06.064Z,31.60
2018-04-08T12:20:06.525Z,31.40
2018-04-08T12:21:06.818Z,30.90
2018-04-08T12:22:06.484Z,30.50
2018-04-08T12:23:11.471Z,31.20
2018-04-08T12:24:06.870Z,31.20
2018-04-08T12:25:06.124Z,31.60
2018-04-08T12:26:06.573Z,31.90
2018-04-08T12:27:08.746Z,31.70
2018-04-08T12:28:11.284Z,31.90
2018-04-08T12:29:06.166Z,31.80
2018-04-08T12:30:06.846Z,31.80
2018-04-08T12:31:06.429Z,31.80
2018-04-08T12:32:08.745Z,31.00
2018-04-08T12:33:08.898Z,31.30
2018-04-08T12:34:06.910Z,31.30
2018-04-08T12:35:06.471Z,31.10
2018-04-08T12:36:06.990Z,31.40
2018-04-08T12:37:06.425Z,31.30
2018-04-08T12:38:10.713Z,31.40
2018-04-08T12:39:11.353Z,31.50
2018-04-08T12:40:06.163Z,31.50
2018-04-08T12:41:11.005Z,30.50
2018-04-08T12:42:10.692Z,30.80
2018-04-08T12:43:06.793Z,30.80
2018-04-08T12:44:05.799Z,31.00
2018-04-08T12:45:08.841Z,31.20
2018-04-08T12:46:08.940Z,31.60
2018-04-08T12:47:06.965Z,31.70
2018-04-08T12:48:06.566Z,31.60
2018-04-08T12:49:06.195Z,31.30
2018-04-08T12:50:06.943Z,31.50
2018-04-08T12:51:06.483Z,30.90
2018-04-08T12:52:06.548Z,31.30